createdAt,value
2019-01-09T00:00:29.602Z,2.60
2019-01-09T00:01:13.636Z,2.60
2019-01-09T00:01:51.910Z,2.60
2019-01-09T00:02:29.729Z,2.60
2019-01-09T00:03:06.989Z,2.60
2019-01-09T00:03:45.022Z,2.60
2019-01-09T00:04:23.249Z,2.60
2019-01-09T00:05:01.213Z,2.60
2019-01-09T00:05:39.078Z,2.60
2019-01-09T00:06:17.073Z,2.50
2019-01-09T00:06:53.819Z,2.60
2019-01-09T00:07:31.356Z,2.60
2019-01-09T00:08:09.573Z,2.60
2019-01-09T00:08:47.432Z,2.60
2019-01-09T00:09:24.925Z,2.60
2019-01-09T00:10:02.708Z,2.60
2019-01-09T00:10:40.904Z,2.60
2019-01-09T00:11:18.486Z,2.60
2019-01-09T00:11:56.273Z,2.60
2019-01-09T00:12:34.224Z,2.60
2019-01-09T00:13:11.808Z,2.60
2019-01-09T00:13:50.026Z,2.60
2019-01-09T00:14:27.880Z,2.60
2019-01-09T00:15:05.386Z,2.60
2019-01-09T00:15:42.576Z,2.60
2019-01-09T00:16:20.138Z,2.60
2019-01-09T00:16:57.819Z,2.50
2019-01-09T00:17:35.373Z,2.60
2019-01-09T00:18:13.640Z,2.60
2019-01-09T00:18:51.248Z,2.60
2019-01-09T00:19:29.075Z,2.60
2019-01-09T00:20:06.574Z,2.60
2019-01-09T00:20:44.504Z,2.60
2019-01-09T00:21:21.726Z,2.60
2019-01-09T00:21:59.261Z,2.60
2019-01-09T00:22:36.956Z,2.60
2019-01-09T00:23:14.288Z,2.60
2019-01-09T00:23:51.463Z,2.50
2019-01-09T00:24:29.089Z,2.50
2019-01-09T00:25:06.956Z,2.50
2019-01-09T00:25:44.792Z,2.50
2019-01-09T00:26:22.287Z,2.50
2019-01-09T00:27:00.265Z,2.50
2019-01-09T00:27:37.795Z,2.50
2019-01-09T00:28:15.832Z,2.50
2019-01-09T00:28:53.404Z,2.50
2019-01-09T00:29:30.537Z,2.50
2019-01-09T00:30:08.796Z,2.50
2019-01-09T00:30:46.041Z,2.50
2019-01-09T00:31:24.104Z,2.50
2019-01-09T00:32:01.298Z,2.50
2019-01-09T00:32:38.956Z,2.50
2019-01-09T00:33:16.159Z,2.50
2019-01-09T00:33:54.298Z,2.50
2019-01-09T00:34:32.032Z,2.50
2019-01-09T00:35:10.244Z,2.50
2019-01-09T00:35:48.149Z,2.50
2019-01-09T00:36:25.665Z,2.50
2019-01-09T00:37:03.196Z,2.50
2019-01-09T00:37:40.832Z,2.50
2019-01-09T00:38:18.252Z,2.50
2019-01-09T00:38:56.047Z,2.50
2019-01-09T00:39:34.134Z,2.50
2019-01-09T00:40:11.673Z,2.50
2019-01-09T00:40:49.877Z,2.40
2019-01-09T00:41:27.976Z,2.50
2019-01-09T00:42:05.759Z,2.50
2019-01-09T00:42:43.398Z,2.50
2019-01-09T00:43:21.232Z,2.50
2019-01-09T00:43:58.656Z,2.40
2019-01-09T00:44:36.103Z,2.40
2019-01-09T00:45:13.884Z,2.40
2019-01-09T00:45:51.635Z,2.40
2019-01-09T00:46:29.576Z,2.40
2019-01-09T00:47:07.450Z,2.40
2019-01-09T00:47:45.573Z,2.50
2019-01-09T00:48:23.740Z,2.50
2019-01-09T00:49:01.283Z,2.50
2019-01-09T00:49:38.974Z,2.50
2019-01-09T00:50:16.532Z,2.50
2019-01-09T00:50:54.751Z,2.40
2019-01-09T00:51:32.636Z,2.40
2019-01-09T00:52:10.744Z,2.50
2019-01-09T00:52:48.474Z,2.40
2019-01-09T00:53:26.624Z,2.40
2019-01-09T00:54:04.352Z,2.40
2019-01-09T00:54:42.466Z,2.40
2019-01-09T00:55:20.368Z,2.50
2019-01-09T00:55:58.552Z,2.50
2019-01-09T00:56:36.562Z,2.50
2019-01-09T00:57:14.382Z,2.50
2019-01-09T00:57:52.357Z,2.50
2019-01-09T00:58:29.796Z,2.40
2019-01-09T00:59:08.090Z,2.50
2019-01-09T00:59:45.612Z,2.50
2019-01-09T01:00:23.206Z,2.40
2019-01-09T01:01:00.698Z,2.40
2019-01-09T01:01:38.272Z,2.40
2019-01-09T01:02:43.279Z,2.40
2019-01-09T01:04:25.872Z,2.40
2019-01-09T01:05:48.050Z,2.40
2019-01-09T01:06:58.249Z,2.30
2019-01-09T01:08:11.490Z,2.30
2019-01-09T01:09:14.561Z,2.30
2019-01-09T01:10:21.206Z,2.30
2019-01-09T01:11:38.416Z,2.30
2019-01-09T01:13:04.566Z,2.30
2019-01-09T01:14:17.658Z,2.20
2019-01-09T01:15:44.987Z,2.30
2019-01-09T01:17:01.925Z,2.20
2019-01-09T01:18:00.152Z,2.20
2019-01-09T01:19:14.406Z,2.20
2019-01-09T01:20:44.812Z,2.20
2019-01-09T01:21:39.432Z,2.20
2019-01-09T01:22:46.310Z,2.20
2019-01-09T01:24:00.614Z,2.20
2019-01-09T01:25:11.217Z,2.20
2019-01-09T01:25:56.533Z,2.20
2019-01-09T01:26:56.376Z,2.20
2019-01-09T01:28:02.586Z,2.20
2019-01-09T01:29:36.180Z,2.20
2019-01-09T01:30:33.732Z,2.20
2019-01-09T01:31:49.446Z,2.20
2019-01-09T01:32:53.216Z,2.20
2019-01-09T01:34:12.350Z,2.20
2019-01-09T01:35:26.084Z,2.20
2019-01-09T01:36:49.956Z,2.20
2019-01-09T01:38:02.346Z,2.30
2019-01-09T01:39:19.864Z,2.20
2019-01-09T01:40:22.208Z,2.20
2019-01-09T01:41:07.929Z,2.20
2019-01-09T01:42:06.266Z,2.20
2019-01-09T01:43:11.850Z,2.20
2019-01-09T01:44:17.488Z,2.20
2019-01-09T01:45:06.492Z,2.20
2019-01-09T01:45:59.276Z,2.20
2019-01-09T01:47:45.216Z,2.20
2019-01-09T01:49:09.131Z,2.30
2019-01-09T01:50:18.566Z,2.20
2019-01-09T01:51:27.453Z,2.20
2019-01-09T01:52:41.471Z,2.20
2019-01-09T01:53:37.524Z,2.20
2019-01-09T01:54:42.616Z,2.20
2019-01-09T01:56:10.258Z,2.20
2019-01-09T01:57:29.425Z,2.20
2019-01-09T01:58:36.619Z,2.20
2019-01-09T01:59:47.261Z,2.20
2019-01-09T02:01:18.600Z,2.20
2019-01-09T02:02:34.279Z,2.20
2019-01-09T02:03:35.204Z,2.20
2019-01-09T02:04:45.047Z,2.20
2019-01-09T02:05:28.665Z,2.10
2019-01-09T02:06:17.769Z,2.20
2019-01-09T02:07:31.029Z,2.20
2019-01-09T02:08:45.785Z,2.20
2019-01-09T02:10:16.715Z,2.20
2019-01-09T02:11:31.828Z,2.20
2019-01-09T02:12:43.405Z,2.20
2019-01-09T02:14:23.296Z,2.10
2019-01-09T02:15:24.947Z,2.10
2019-01-09T02:16:39.143Z,2.10
2019-01-09T02:17:40.418Z,2.10
2019-01-09T02:18:43.245Z,2.20
2019-01-09T02:19:43.919Z,2.20
2019-01-09T02:20:44.852Z,2.10
2019-01-09T02:21:34.264Z,2.10
2019-01-09T02:22:59.641Z,2.10
2019-01-09T02:24:12.413Z,2.10
2019-01-09T02:25:28.289Z,2.10
2019-01-09T02:26:23.259Z,2.10
2019-01-09T02:27:18.281Z,2.10
2019-01-09T02:28:37.115Z,2.10
2019-01-09T02:29:43.391Z,2.10
2019-01-09T02:30:54.023Z,2.10
2019-01-09T02:32:12.871Z,2.10
2019-01-09T02:32:50.786Z,2.10
2019-01-09T02:33:28.803Z,2.10
2019-01-09T02:34:06.328Z,2.10
2019-01-09T02:34:43.908Z,2.10
2019-01-09T02:35:22.156Z,2.10
2019-01-09T02:36:00.365Z,2.10
2019-01-09T02:36:38.525Z,2.10
2019-01-09T02:37:16.681Z,2.00
2019-01-09T02:37:54.195Z,2.10
2019-01-09T02:38:31.958Z,2.10
2019-01-09T02:39:09.742Z,2.10
2019-01-09T02:39:47.878Z,2.00
2019-01-09T02:40:25.737Z,2.10
2019-01-09T02:41:03.213Z,2.00
2019-01-09T02:41:40.976Z,2.10
2019-01-09T02:42:18.108Z,2.10
2019-01-09T02:42:55.548Z,2.10
2019-01-09T02:43:33.560Z,2.10
2019-01-09T02:44:10.781Z,2.00
2019-01-09T02:44:48.278Z,2.00
2019-01-09T02:45:26.173Z,2.00
2019-01-09T02:46:04.389Z,2.00
2019-01-09T02:46:42.150Z,2.00
2019-01-09T02:47:19.743Z,2.10
2019-01-09T02:47:57.471Z,2.00
2019-01-09T02:48:35.325Z,2.00
2019-01-09T02:49:12.812Z,2.00
2019-01-09T02:49:50.597Z,2.00
2019-01-09T02:50:28.149Z,2.00
2019-01-09T02:51:06.279Z,2.00
2019-01-09T02:51:44.245Z,2.00
2019-01-09T02:52:22.255Z,2.00
2019-01-09T02:52:59.439Z,2.00
2019-01-09T02:53:37.200Z,2.00
2019-01-09T02:54:14.605Z,2.00
2019-01-09T02:54:52.050Z,2.00
2019-01-09T02:55:29.467Z,2.00
2019-01-09T02:56:07.438Z,2.00
2019-01-09T02:56:44.505Z,2.10
2019-01-09T02:57:24.560Z,2.00
2019-01-09T02:58:01.809Z,2.10
2019-01-09T02:58:39.414Z,2.10
2019-01-09T02:59:16.913Z,2.10
2019-01-09T02:59:55.065Z,2.00
2019-01-09T03:00:33.261Z,2.00
2019-01-09T03:01:11.121Z,2.00
2019-01-09T03:01:48.707Z,2.00
2019-01-09T03:02:26.511Z,2.00
2019-01-09T03:03:04.065Z,2.00
2019-01-09T03:03:41.575Z,2.00
2019-01-09T03:04:18.975Z,2.00
2019-01-09T03:04:56.759Z,2.00
2019-01-09T03:05:34.463Z,2.00
2019-01-09T03:06:12.331Z,2.00
2019-01-09T03:06:50.070Z,2.00
2019-01-09T03:07:27.848Z,2.00
2019-01-09T03:08:05.625Z,2.00
2019-01-09T03:08:43.543Z,2.10
2019-01-09T03:09:20.646Z,2.00
2019-01-09T03:09:58.684Z,2.00
2019-01-09T03:10:36.841Z,2.10
2019-01-09T03:11:14.461Z,2.10
2019-01-09T03:11:52.558Z,2.10
2019-01-09T03:12:30.413Z,2.10
2019-01-09T03:13:08.564Z,2.10
2019-01-09T03:13:46.293Z,2.10
2019-01-09T03:14:24.308Z,2.10
2019-01-09T03:15:02.085Z,2.10
2019-01-09T03:15:39.585Z,2.10
2019-01-09T03:16:17.221Z,2.10
2019-01-09T03:16:54.739Z,2.10
2019-01-09T03:17:31.603Z,2.10
2019-01-09T03:18:09.547Z,2.10
2019-01-09T03:18:46.700Z,2.10
2019-01-09T03:19:24.889Z,2.10
2019-01-09T03:20:02.660Z,2.10
2019-01-09T03:20:39.519Z,2.10
2019-01-09T03:21:17.663Z,2.00
2019-01-09T03:21:55.349Z,2.10
2019-01-09T03:22:33.287Z,2.10
2019-01-09T03:23:11.070Z,2.10
2019-01-09T03:23:48.749Z,2.10
2019-01-09T03:24:26.481Z,2.10
2019-01-09T03:25:04.780Z,2.10
2019-01-09T03:25:42.266Z,2.10
2019-01-09T03:26:20.104Z,2.10
2019-01-09T03:26:58.195Z,2.10
2019-01-09T03:27:35.890Z,2.10
2019-01-09T03:28:13.807Z,2.10
2019-01-09T03:28:51.781Z,2.10
2019-01-09T03:29:29.327Z,2.10
2019-01-09T03:30:06.902Z,2.10
2019-01-09T03:30:44.412Z,2.10
2019-01-09T03:31:22.536Z,2.10
2019-01-09T03:32:00.395Z,2.10
2019-01-09T03:32:38.022Z,2.10
2019-01-09T03:33:15.912Z,2.00
2019-01-09T03:33:53.945Z,2.00
2019-01-09T03:34:31.473Z,2.00
2019-01-09T03:35:09.109Z,2.00
2019-01-09T03:35:46.891Z,2.00
2019-01-09T03:36:32.497Z,2.00
2019-01-09T03:37:04.029Z,2.00
2019-01-09T03:37:42.322Z,2.00
2019-01-09T03:38:19.515Z,2.00
2019-01-09T03:38:57.094Z,2.00
2019-01-09T03:39:35.033Z,2.00
2019-01-09T03:40:12.927Z,2.00
2019-01-09T03:40:50.551Z,2.00
2019-01-09T03:41:28.306Z,2.00
2019-01-09T03:42:06.178Z,2.00
2019-01-09T03:42:43.821Z,2.00
2019-01-09T03:43:21.885Z,2.00
2019-01-09T03:43:59.465Z,2.00
2019-01-09T03:44:37.271Z,2.00
2019-01-09T03:45:14.683Z,2.00
2019-01-09T03:45:52.416Z,2.00
2019-01-09T03:46:29.557Z,2.00
2019-01-09T03:47:07.598Z,2.00
2019-01-09T03:47:45.259Z,2.00
2019-01-09T03:48:23.271Z,2.00
2019-01-09T03:49:01.341Z,2.00
2019-01-09T03:49:38.798Z,2.00
2019-01-09T03:50:16.891Z,2.00
2019-01-09T03:50:54.837Z,2.00
2019-01-09T03:51:32.077Z,2.00
2019-01-09T03:52:10.185Z,2.00
2019-01-09T03:52:47.934Z,2.00
2019-01-09T03:53:26.087Z,2.00
2019-01-09T03:54:04.121Z,2.00
2019-01-09T03:54:41.900Z,2.00
2019-01-09T03:55:19.381Z,2.00
2019-01-09T03:55:57.139Z,2.00
2019-01-09T03:56:34.534Z,2.00
2019-01-09T03:57:11.307Z,2.00
2019-01-09T03:57:48.634Z,2.00
2019-01-09T03:58:26.419Z,2.00
2019-01-09T03:59:10.122Z,2.00
2019-01-09T03:59:47.949Z,2.00
2019-01-09T04:00:25.939Z,2.00
2019-01-09T04:01:03.911Z,2.00
2019-01-09T04:01:41.471Z,2.00
2019-01-09T04:02:18.500Z,2.00
2019-01-09T04:02:56.221Z,2.00
2019-01-09T04:03:33.764Z,2.00
2019-01-09T04:04:11.244Z,2.00
2019-01-09T04:04:48.957Z,2.10
2019-01-09T04:05:26.645Z,2.00
2019-01-09T04:06:04.091Z,2.00
2019-01-09T04:06:41.959Z,2.00
2019-01-09T04:07:20.283Z,2.00
2019-01-09T04:07:58.099Z,2.00
2019-01-09T04:08:35.233Z,2.00
2019-01-09T04:09:13.058Z,2.00
2019-01-09T04:09:50.558Z,2.00
2019-01-09T04:10:28.545Z,2.00
2019-01-09T04:11:06.291Z,1.90
2019-01-09T04:11:44.497Z,1.90
2019-01-09T04:12:21.545Z,1.90
2019-01-09T04:12:59.349Z,1.90
2019-01-09T04:13:36.656Z,1.90
2019-01-09T04:14:14.243Z,1.90
2019-01-09T04:14:57.504Z,1.90
2019-01-09T04:15:34.805Z,1.90
2019-01-09T04:16:12.261Z,1.90
2019-01-09T04:16:50.514Z,1.90
2019-01-09T04:17:27.693Z,1.90
2019-01-09T04:18:05.319Z,1.90
2019-01-09T04:18:43.187Z,1.90
2019-01-09T04:19:20.827Z,1.90
2019-01-09T04:19:58.459Z,1.90
2019-01-09T04:20:36.463Z,1.90
2019-01-09T04:21:14.179Z,1.80
2019-01-09T04:21:52.157Z,1.90
2019-01-09T04:22:29.879Z,1.90
2019-01-09T04:23:07.530Z,1.80
2019-01-09T04:23:45.551Z,1.80
2019-01-09T04:24:23.615Z,1.80
2019-01-09T04:25:00.881Z,1.80
2019-01-09T04:25:38.557Z,1.80
2019-01-09T04:26:16.289Z,1.80
2019-01-09T04:26:53.843Z,1.80
2019-01-09T04:27:31.503Z,1.80
2019-01-09T04:28:08.748Z,1.80
2019-01-09T04:28:46.245Z,1.80
2019-01-09T04:29:23.963Z,1.80
2019-01-09T04:30:01.369Z,1.80
2019-01-09T04:30:39.134Z,1.80
2019-01-09T04:31:16.664Z,1.80
2019-01-09T04:31:54.097Z,1.80
2019-01-09T04:32:32.277Z,1.80
2019-01-09T04:33:09.713Z,1.80
2019-01-09T04:33:47.085Z,1.70
2019-01-09T04:34:24.805Z,1.80
2019-01-09T04:35:02.248Z,1.80
2019-01-09T04:35:40.455Z,1.70
2019-01-09T04:36:18.449Z,1.80
2019-01-09T04:36:56.163Z,1.70
2019-01-09T04:37:34.007Z,1.80
2019-01-09T04:38:11.867Z,1.80
2019-01-09T04:38:49.817Z,1.80
2019-01-09T04:39:27.820Z,1.80
2019-01-09T04:40:05.939Z,1.80
2019-01-09T04:40:43.703Z,1.80
2019-01-09T04:41:21.144Z,1.80
2019-01-09T04:41:58.576Z,1.80
2019-01-09T04:42:36.095Z,1.80
2019-01-09T04:43:13.664Z,1.80
2019-01-09T04:43:51.103Z,1.80
2019-01-09T04:44:29.084Z,1.80
2019-01-09T04:45:06.669Z,1.80
2019-01-09T04:45:44.109Z,1.80
2019-01-09T04:46:21.568Z,1.80
2019-01-09T04:46:59.273Z,1.80
2019-01-09T04:47:36.835Z,1.80
2019-01-09T04:48:14.715Z,1.80
2019-01-09T04:48:52.197Z,1.80
2019-01-09T04:49:29.948Z,1.80
2019-01-09T04:50:07.562Z,1.80
2019-01-09T04:50:45.606Z,1.80
2019-01-09T04:51:23.339Z,1.80
2019-01-09T04:52:00.958Z,1.80
2019-01-09T04:52:38.135Z,1.80
2019-01-09T04:53:15.491Z,1.80
2019-01-09T04:53:53.523Z,1.80
2019-01-09T04:54:30.772Z,1.80
2019-01-09T04:55:08.117Z,1.80
2019-01-09T04:55:45.538Z,1.80
2019-01-09T04:56:23.248Z,1.80
2019-01-09T04:57:00.886Z,1.80
2019-01-09T04:57:38.763Z,1.80
2019-01-09T04:58:15.859Z,1.80
2019-01-09T04:58:53.588Z,1.80
2019-01-09T04:59:30.992Z,1.80
2019-01-09T05:00:08.641Z,1.80
2019-01-09T05:00:46.639Z,1.80
2019-01-09T05:01:24.381Z,1.80
2019-01-09T05:02:01.825Z,1.80
2019-01-09T05:02:39.426Z,1.80
2019-01-09T05:03:17.100Z,1.80
2019-01-09T05:03:55.116Z,1.80
2019-01-09T05:04:32.449Z,1.80
2019-01-09T05:05:10.284Z,1.80
2019-01-09T05:05:48.039Z,1.80
2019-01-09T05:06:25.924Z,1.80
2019-01-09T05:07:03.400Z,1.90
2019-01-09T05:07:41.182Z,1.90
2019-01-09T05:08:18.309Z,1.80
2019-01-09T05:08:56.065Z,1.80
2019-01-09T05:09:33.962Z,1.80
2019-01-09T05:10:11.944Z,1.80
2019-01-09T05:10:49.005Z,1.80
2019-01-09T05:11:26.570Z,1.80
2019-01-09T05:12:04.712Z,1.80
2019-01-09T05:12:42.642Z,1.80
2019-01-09T05:13:19.756Z,1.80
2019-01-09T05:13:57.888Z,1.80
2019-01-09T05:14:35.282Z,1.80
2019-01-09T05:15:13.461Z,1.80
2019-01-09T05:15:51.551Z,1.80
2019-01-09T05:16:29.631Z,1.80
2019-01-09T05:17:07.417Z,1.80
2019-01-09T05:17:44.453Z,1.70
2019-01-09T05:18:22.216Z,1.70
2019-01-09T05:19:00.004Z,1.80
2019-01-09T05:19:37.714Z,1.70
2019-01-09T05:20:14.749Z,1.70
2019-01-09T05:20:52.700Z,1.70
2019-01-09T05:21:30.494Z,1.70
2019-01-09T05:22:07.702Z,1.70
2019-01-09T05:22:45.189Z,1.70
2019-01-09T05:23:22.995Z,1.70
2019-01-09T05:24:00.549Z,1.70
2019-01-09T05:24:38.510Z,1.70
2019-01-09T05:25:16.256Z,1.70
2019-01-09T05:25:54.397Z,1.70
2019-01-09T05:26:32.258Z,1.70
2019-01-09T05:27:09.681Z,1.60
2019-01-09T05:27:47.269Z,1.60
2019-01-09T05:28:24.785Z,1.60
2019-01-09T05:29:02.415Z,1.60
2019-01-09T05:29:39.108Z,1.60
2019-01-09T05:30:16.864Z,1.60
2019-01-09T05:30:54.706Z,1.60
2019-01-09T05:31:32.136Z,1.60
2019-01-09T05:32:09.231Z,1.60
2019-01-09T05:32:46.318Z,1.60
2019-01-09T05:33:24.136Z,1.60
2019-01-09T05:34:02.308Z,1.50
2019-01-09T05:34:40.136Z,1.50
2019-01-09T05:35:17.948Z,1.50
2019-01-09T05:35:55.457Z,1.50
2019-01-09T05:36:33.213Z,1.50
2019-01-09T05:37:10.416Z,1.50
2019-01-09T05:37:48.386Z,1.50
2019-01-09T05:38:26.242Z,1.50
2019-01-09T05:39:04.420Z,1.50
2019-01-09T05:39:42.540Z,1.50
2019-01-09T05:40:20.267Z,1.50
2019-01-09T05:40:57.773Z,1.50
2019-01-09T05:41:35.270Z,1.50
2019-01-09T05:42:12.981Z,1.50
2019-01-09T05:42:51.122Z,1.50
2019-01-09T05:43:28.588Z,1.40
2019-01-09T05:44:06.388Z,1.40
2019-01-09T05:44:43.142Z,1.40
2019-01-09T05:45:20.490Z,1.40
2019-01-09T05:45:58.470Z,1.40
2019-01-09T05:46:36.691Z,1.40
2019-01-09T05:47:14.125Z,1.30
2019-01-09T05:47:51.900Z,1.30
2019-01-09T05:48:29.718Z,1.30
2019-01-09T05:49:07.412Z,1.30
2019-01-09T05:49:44.464Z,1.40
2019-01-09T05:50:21.639Z,1.40
2019-01-09T05:50:58.735Z,1.40
2019-01-09T05:51:37.942Z,1.40
2019-01-09T05:52:15.844Z,1.40
2019-01-09T05:52:53.480Z,1.40
2019-01-09T05:53:31.265Z,1.30
2019-01-09T05:54:09.475Z,1.30
2019-01-09T05:54:47.042Z,1.30
2019-01-09T05:55:24.056Z,1.30
2019-01-09T05:56:02.324Z,1.30
2019-01-09T05:56:40.337Z,1.30
2019-01-09T05:57:17.778Z,1.30
2019-01-09T05:57:55.217Z,1.30
2019-01-09T05:58:32.728Z,1.30
2019-01-09T05:59:10.143Z,1.30
2019-01-09T05:59:47.676Z,1.30
2019-01-09T06:00:25.339Z,1.30
2019-01-09T06:01:03.198Z,1.30
2019-01-09T06:01:41.043Z,1.30
2019-01-09T06:02:18.926Z,1.30
2019-01-09T06:02:56.834Z,1.30
2019-01-09T06:03:34.606Z,1.40
2019-01-09T06:04:12.180Z,1.40
2019-01-09T06:04:50.010Z,1.30
2019-01-09T06:05:27.959Z,1.30
2019-01-09T06:06:05.875Z,1.40
2019-01-09T06:06:42.970Z,1.40
2019-01-09T06:07:20.744Z,1.40
2019-01-09T06:07:58.763Z,1.40
2019-01-09T06:08:35.861Z,1.40
2019-01-09T06:09:13.132Z,1.40
2019-01-09T06:09:50.519Z,1.40
2019-01-09T06:10:28.238Z,1.40
2019-01-09T06:11:05.912Z,1.40
2019-01-09T06:11:43.298Z,1.40
2019-01-09T06:12:20.672Z,1.40
2019-01-09T06:12:58.712Z,1.40
2019-01-09T06:13:36.480Z,1.40
2019-01-09T06:14:13.913Z,1.40
2019-01-09T06:14:51.260Z,1.40
2019-01-09T06:15:28.298Z,1.40
2019-01-09T06:16:05.968Z,1.40
2019-01-09T06:16:43.804Z,1.40
2019-01-09T06:17:21.596Z,1.50
2019-01-09T06:17:59.291Z,1.50
2019-01-09T06:18:36.986Z,1.50
2019-01-09T06:19:14.076Z,1.40
2019-01-09T06:19:52.113Z,1.40
2019-01-09T06:20:29.596Z,1.40
2019-01-09T06:21:07.076Z,1.50
2019-01-09T06:21:44.785Z,1.50
2019-01-09T06:22:22.563Z,1.50
2019-01-09T06:23:00.170Z,1.50
2019-01-09T06:23:38.364Z,1.50
2019-01-09T06:24:16.460Z,1.50
2019-01-09T06:24:54.048Z,1.50
2019-01-09T06:25:31.703Z,1.50
2019-01-09T06:26:09.158Z,1.50
2019-01-09T06:26:46.689Z,1.50
2019-01-09T06:27:24.424Z,1.60
2019-01-09T06:28:01.985Z,1.60
2019-01-09T06:28:39.999Z,1.60
2019-01-09T06:29:17.106Z,1.60
2019-01-09T06:29:55.016Z,1.70
2019-01-09T06:30:33.171Z,1.70
2019-01-09T06:31:11.200Z,1.70
2019-01-09T06:31:49.211Z,1.70
2019-01-09T06:32:27.060Z,1.80
2019-01-09T06:33:04.601Z,1.80
2019-01-09T06:33:45.371Z,1.80
2019-01-09T06:34:22.941Z,1.80
2019-01-09T06:35:00.725Z,1.80
2019-01-09T06:35:38.539Z,1.80
2019-01-09T06:36:16.249Z,1.90
2019-01-09T06:36:53.327Z,1.90
2019-01-09T06:37:30.327Z,1.90
2019-01-09T06:38:08.029Z,1.90
2019-01-09T06:38:45.834Z,1.90
2019-01-09T06:39:23.201Z,1.90
2019-01-09T06:40:00.914Z,1.90
2019-01-09T06:40:37.973Z,1.90
2019-01-09T06:41:15.467Z,1.90
2019-01-09T06:41:52.849Z,1.90
2019-01-09T06:42:30.003Z,1.90
2019-01-09T06:43:07.122Z,1.90
2019-01-09T06:43:44.840Z,1.90
2019-01-09T06:44:22.910Z,1.90
2019-01-09T06:45:00.885Z,1.90
2019-01-09T06:45:38.210Z,1.90
2019-01-09T06:46:15.662Z,1.90
2019-01-09T06:46:53.344Z,2.00
2019-01-09T06:47:31.028Z,1.90
2019-01-09T06:48:08.167Z,1.90
2019-01-09T06:48:46.022Z,1.90
2019-01-09T06:49:23.772Z,1.90
2019-01-09T06:50:01.600Z,1.90
2019-01-09T06:50:39.443Z,1.90
2019-01-09T06:51:17.284Z,1.90
2019-01-09T06:51:55.281Z,2.00
2019-01-09T06:52:32.785Z,2.00
2019-01-09T06:53:10.879Z,1.90
2019-01-09T06:53:48.890Z,1.90
2019-01-09T06:54:26.544Z,1.90
2019-01-09T06:55:04.557Z,1.90
2019-01-09T06:55:42.054Z,2.00
2019-01-09T06:56:20.040Z,2.00
2019-01-09T06:56:57.996Z,1.90
2019-01-09T06:57:36.093Z,2.00
2019-01-09T06:58:14.116Z,2.00
2019-01-09T06:58:51.735Z,2.00
2019-01-09T06:59:29.170Z,2.00
2019-01-09T07:00:07.846Z,2.00
2019-01-09T07:00:45.059Z,2.00
2019-01-09T07:01:22.094Z,2.00
2019-01-09T07:02:00.260Z,2.00
2019-01-09T07:02:38.302Z,2.00
2019-01-09T07:03:15.362Z,2.00
2019-01-09T07:03:53.252Z,2.00
2019-01-09T07:04:30.664Z,2.00
2019-01-09T07:05:08.520Z,2.00
2019-01-09T07:05:46.408Z,2.00
2019-01-09T07:06:23.818Z,2.00
2019-01-09T07:07:01.964Z,2.00
2019-01-09T07:07:39.568Z,2.00
2019-01-09T07:08:16.652Z,2.00
2019-01-09T07:08:54.324Z,2.00
2019-01-09T07:09:32.071Z,2.00
2019-01-09T07:10:09.598Z,2.00
2019-01-09T07:10:46.652Z,2.00
2019-01-09T07:11:24.468Z,2.00
2019-01-09T07:12:02.048Z,2.00
2019-01-09T07:12:39.101Z,2.00
2019-01-09T07:13:17.038Z,2.00
2019-01-09T07:13:54.776Z,2.00
2019-01-09T07:14:32.472Z,2.00
2019-01-09T07:15:11.580Z,2.00
2019-01-09T07:15:49.436Z,2.00
2019-01-09T07:16:27.458Z,2.00
2019-01-09T07:17:05.224Z,2.00
2019-01-09T07:17:42.904Z,2.00
2019-01-09T07:18:21.015Z,2.00
2019-01-09T07:18:58.164Z,2.00
2019-01-09T07:19:35.890Z,2.00
2019-01-09T07:20:12.774Z,2.00
2019-01-09T07:20:50.276Z,2.00
2019-01-09T07:21:27.886Z,2.00
2019-01-09T07:22:05.452Z,1.90
2019-01-09T07:22:42.856Z,2.00
2019-01-09T07:23:20.604Z,2.00
2019-01-09T07:23:58.036Z,2.00
2019-01-09T07:24:36.128Z,2.00
2019-01-09T07:25:13.954Z,2.00
2019-01-09T07:25:52.010Z,2.00
2019-01-09T07:26:29.852Z,2.00
2019-01-09T07:27:07.340Z,2.00
2019-01-09T07:27:45.439Z,2.00
2019-01-09T07:28:22.929Z,2.00
2019-01-09T07:29:00.852Z,2.00
2019-01-09T07:29:38.266Z,2.00
2019-01-09T07:30:16.306Z,2.00
2019-01-09T07:30:54.371Z,2.00
2019-01-09T07:31:31.520Z,2.00
2019-01-09T07:32:08.998Z,2.00
2019-01-09T07:32:46.796Z,2.00
2019-01-09T07:33:23.986Z,2.00
2019-01-09T07:34:01.056Z,1.90
2019-01-09T07:34:39.032Z,1.90
2019-01-09T07:35:16.176Z,1.90
2019-01-09T07:35:53.899Z,1.90
2019-01-09T07:36:31.660Z,1.90
2019-01-09T07:37:09.238Z,1.90
2019-01-09T07:37:46.812Z,1.90
2019-01-09T07:38:24.531Z,1.90
2019-01-09T07:39:01.909Z,1.90
2019-01-09T07:39:38.992Z,1.90
2019-01-09T07:40:18.818Z,1.90
2019-01-09T07:40:55.448Z,1.90
2019-01-09T07:41:32.618Z,1.90
2019-01-09T07:42:10.295Z,1.90
2019-01-09T07:42:48.040Z,1.90
2019-01-09T07:43:25.740Z,1.90
2019-01-09T07:44:03.138Z,1.90
2019-01-09T07:44:41.041Z,1.90
2019-01-09T07:45:19.141Z,1.90
2019-01-09T07:45:56.862Z,1.90
2019-01-09T07:46:34.282Z,1.90
2019-01-09T07:47:11.494Z,1.90
2019-01-09T07:47:51.085Z,1.90
2019-01-09T07:48:28.796Z,1.90
2019-01-09T07:49:07.008Z,1.90
2019-01-09T07:49:44.972Z,2.00
2019-01-09T07:50:22.973Z,1.90
2019-01-09T07:51:00.747Z,2.00
2019-01-09T07:51:38.450Z,2.00
2019-01-09T07:52:16.120Z,2.00
2019-01-09T07:52:53.868Z,1.90
2019-01-09T07:53:31.903Z,1.90
2019-01-09T07:54:09.420Z,1.90
2019-01-09T07:54:47.361Z,1.90
2019-01-09T07:55:24.431Z,2.00
2019-01-09T07:56:02.388Z,1.90
2019-01-09T07:56:40.152Z,1.90
2019-01-09T07:57:17.789Z,2.00
2019-01-09T07:57:55.302Z,1.90
2019-01-09T07:58:32.334Z,1.90
2019-01-09T07:59:10.054Z,2.00
2019-01-09T07:59:48.009Z,2.00
2019-01-09T08:00:25.524Z,1.90
2019-01-09T08:01:03.022Z,2.00
2019-01-09T08:01:40.043Z,2.00
2019-01-09T08:02:20.056Z,2.00
2019-01-09T08:02:58.051Z,2.00
2019-01-09T08:03:35.749Z,1.90
2019-01-09T08:04:14.916Z,1.90
2019-01-09T08:04:53.262Z,1.90
2019-01-09T08:05:30.861Z,1.90
2019-01-09T08:06:09.008Z,2.00
2019-01-09T08:06:46.980Z,1.90
2019-01-09T08:07:24.844Z,1.90
2019-01-09T08:08:02.532Z,2.00
2019-01-09T08:08:40.089Z,1.90
2019-01-09T08:09:17.809Z,1.90
2019-01-09T08:09:55.440Z,1.90
2019-01-09T08:10:33.280Z,1.90
2019-01-09T08:11:10.709Z,1.90
2019-01-09T08:11:48.383Z,1.90
2019-01-09T08:12:25.895Z,1.90
2019-01-09T08:13:03.245Z,1.90
2019-01-09T08:13:40.523Z,1.90
2019-01-09T08:14:18.242Z,1.90
2019-01-09T08:14:55.707Z,1.90
2019-01-09T08:15:33.064Z,1.90
2019-01-09T08:16:10.126Z,1.90
2019-01-09T08:16:47.513Z,1.90
2019-01-09T08:17:25.520Z,1.90
2019-01-09T08:18:03.129Z,1.90
2019-01-09T08:18:40.315Z,1.90
2019-01-09T08:19:17.953Z,1.90
2019-01-09T08:19:58.895Z,1.90
2019-01-09T08:20:36.376Z,1.90
2019-01-09T08:21:13.954Z,1.90
2019-01-09T08:21:52.245Z,1.90
2019-01-09T08:22:30.025Z,1.90
2019-01-09T08:23:07.202Z,1.90
2019-01-09T08:23:44.265Z,1.90
2019-01-09T08:24:22.169Z,1.90
2019-01-09T08:24:59.893Z,1.90
2019-01-09T08:25:37.633Z,1.90
2019-01-09T08:26:15.954Z,1.90
2019-01-09T08:26:54.021Z,1.90
2019-01-09T08:27:32.047Z,1.90
2019-01-09T08:28:10.023Z,1.90
2019-01-09T08:28:48.053Z,1.90
2019-01-09T08:29:25.881Z,1.90
2019-01-09T08:30:03.829Z,1.80
2019-01-09T08:30:41.616Z,1.90
2019-01-09T08:31:19.322Z,1.80
2019-01-09T08:32:00.100Z,1.80
2019-01-09T08:32:37.577Z,1.90
2019-01-09T08:33:15.631Z,1.90
2019-01-09T08:33:53.259Z,1.90
2019-01-09T08:34:31.369Z,1.90
2019-01-09T08:35:09.339Z,1.90
2019-01-09T08:35:46.913Z,1.90
2019-01-09T08:36:24.861Z,1.90
2019-01-09T08:37:02.616Z,2.00
2019-01-09T08:37:39.899Z,2.00
2019-01-09T08:38:20.623Z,2.00
2019-01-09T08:38:58.609Z,2.00
2019-01-09T08:39:37.018Z,2.00
2019-01-09T08:40:14.513Z,2.00
2019-01-09T08:40:52.273Z,2.00
2019-01-09T08:41:30.165Z,2.00
2019-01-09T08:42:07.801Z,1.90
2019-01-09T08:42:45.437Z,2.00
2019-01-09T08:43:23.556Z,2.00
2019-01-09T08:44:01.340Z,1.90
2019-01-09T08:44:39.535Z,2.00
2019-01-09T08:45:17.474Z,2.00
2019-01-09T08:45:55.262Z,2.00
2019-01-09T08:46:33.661Z,2.00
2019-01-09T08:47:11.038Z,2.00
2019-01-09T08:47:48.314Z,2.10
2019-01-09T08:48:26.357Z,2.10
2019-01-09T08:49:04.789Z,2.10
2019-01-09T08:49:43.181Z,2.10
2019-01-09T08:50:22.001Z,2.10
2019-01-09T08:51:00.183Z,2.10
2019-01-09T08:51:38.452Z,2.10
2019-01-09T08:52:16.050Z,2.00
2019-01-09T08:52:53.501Z,2.00
2019-01-09T08:53:31.741Z,2.00
2019-01-09T08:54:10.011Z,2.00
2019-01-09T08:54:47.715Z,2.00
2019-01-09T08:55:25.480Z,2.00
2019-01-09T08:56:03.029Z,2.00
2019-01-09T08:56:40.913Z,2.00
2019-01-09T08:57:18.389Z,2.00
2019-01-09T08:57:56.231Z,2.00
2019-01-09T08:58:34.229Z,2.00
2019-01-09T08:59:12.184Z,2.00
2019-01-09T08:59:49.929Z,2.00
2019-01-09T09:00:27.659Z,2.00
2019-01-09T09:01:05.634Z,2.00
2019-01-09T09:01:43.102Z,2.10
2019-01-09T09:02:20.480Z,2.00
2019-01-09T09:02:58.315Z,2.10
2019-01-09T09:03:35.735Z,2.10
2019-01-09T09:04:13.577Z,2.00
2019-01-09T09:04:51.112Z,2.10